Impacts TAF Board INFO
FOR SITUATIONAL AWARENESS. NOT TO BE USED FOR FLIGHT PLANNING PURPOSES.
IDs:

KBHM - Birmingham Intl, AL, US

Issued at 1126 UTC 20 May 2018
Updated at 1528 UTC 20 May 2018
Potential Impact None Slight Moderate High
Time<<21/04Z 21/05Z 21/06Z 21/07Z 21/08Z 21/09Z 21/10Z 21/11Z 21/12Z 21/13Z 21/14Z 21/15Z 21/16Z>>
Type PRVL PRVL PRVL PRVL PRVL PRVL PRVL PRVL
VIS >6 >6 >6 >6 >6 4 4 4
CIG 250 250 250 250 250 15 15 15
Cover BKN BKN BKN BKN BKN OVC OVC OVC
FltCat VFR VFR VFR VFR VFR MVFR MVFR MVFR
WX VCTS VCTS VCTS VCTS VCTS BR BR BR
WDir 100 100 100 100 100 100 100 100
WSpd 5 5 5 5 5 2 2 2
WGst -- -- -- -- -- -- -- --

Raw TAF
KBHM 201126Z 2012/2112 VRB03KT P6SM SCT250
  FM201700 10005KT P6SM VCTS SCT050CB BKN250
  PROB30 2021/2101 P6SM TSRA BKN050CB
  FM210900 10002KT 4SM BR OVC015


METAR Board
Radar Display
Forecast Discussion

FOR SITUATIONAL AWARENESS. NOT TO BE USED FOR FLIGHT PLANNING PURPOSES.